Impacts METAR Board
IDs:

KLGA - New York/La Guardia, NY, US

Updated at: 2200 UTC 19 Jan 2019
Potential Impact None Slight Moderate High
Time 19/10Z 19/11Z 19/12Z 19/13Z 19/14Z 19/15Z 19/16Z 19/17Z 19/18Z 19/19Z 19/20Z 19/21Z 19/22Z
Temp34 34 33 33 35 36 36 36 36 36 37 37 37
Dewpt21 20 20 21 21 20 23 23 22 23 20 24 24
Altim30.20 30.22 30.22 30.24 30.26 30.27 30.27 30.24 30.20 30.18 30.17 30.15 30.12
VIS10 10 10 10 10 10 10 10 10 10 10 10 10
CIG-- -- -- 250 260 -- 50 50 35 38 34 28 27
CoverSCTSCTSCTBKNBKNSCTBKNOVCOVCOVCOVCOVCOVC
FltCatVFRVFRVFRVFRVFRVFRVFRVFRVFRVFRVFRMVFRMVFR
WX--------------------------
WDir3103403600205080405040120100100
WSpd6 6 5 0 3 6 6 6 12 9 8 10 10
WGst-- -- -- -- -- -- -- -- -- -- -- -- --
Raw hourly METARs
KLGA 190951Z 31006KT 10SM SCT250 01/M06 A3020 RMK AO2 SLP228 T00111061
KLGA 191051Z 34006KT 10SM FEW045 SCT250 01/M07 A3022 RMK AO2 SLP234 T00111067
KLGA 191151Z 36005KT 10SM FEW200 SCT250 01/M07 A3022 RMK AO2 SLP231 T00061067 10022 20006 50003
KLGA 191251Z 00000KT 10SM FEW045 FEW150 BKN250 01/M06 A3024 RMK AO2 SLP239 T00061061
KLGA 191351Z 02003KT 10SM FEW048 SCT170 BKN260 02/M06 A3026 RMK AO2 SLP247 T00171061
KLGA 191451Z 05006KT 10SM FEW048 FEW170 SCT250 02/M07 A3027 RMK AO2 SLP249 T00221067 51018
KLGA 191551Z 08006KT 10SM BKN050 BKN170 BKN250 02/M05 A3027 RMK AO2 SLP249 T00221050
KLGA 191651Z 04006KT 10SM FEW034 OVC050 02/M05 A3024 RMK AO2 SLP241 T00221050
KLGA 191751Z 05012KT 10SM BKN035 OVC050 02/M06 A3020 RMK AO2 SLP224 T00221056 10028 20000 58025
KLGA 191851Z 04009KT 10SM OVC038 02/M05 A3018 RMK AO2 SLP218 T00221050
KLGA 191951Z 12008KT 10SM OVC034 03/M07 A3017 RMK AO2 SLP215 T00281067
KLGA 192051Z 10010KT 10SM BKN028 BKN035 OVC040 03/M04 A3015 RMK AO2 SLP209 T00281044 56016
KLGA 192151Z 10010KT 10SM BKN027 OVC035 03/M04 A3012 RMK AO2 SLP197 T00281044



Page loaded:  22:43 UTC  |   02:43 PM Pacific  |   03:43 PM Mountain  |   04:43 PM Central  |   05:43 PM Eastern

 

ADVISORIES

FORECASTS

FORECASTS

OBSERVATIONS

USER TOOLS

ABOUT US